Time;durP1;ratioP1;P1;durP2;ratioP2;P2;SDS_P1;SDS_P2;PMS_P1;PMS_P2;Temp;Humidity;BMP_temperature;BMP_pressure;BME280_temperature;BME280_humidity;BME280_pressure;Samples;Min_cycle;Max_cycle;Signal;HPM_P1;HPM_P2
2022/07/11 04:01:20;;;;;;;3.90;3.17;;;18.00;99.90;;;;;;5544878;23;20505;-66
2022/07/11 04:03:47;;;;;;;3.63;3.43;;;18.00;99.90;;;;;;4996680;28;20911;-65
2022/07/11 04:06:14;;;;;;;3.80;3.50;;;18.00;99.90;;;;;;4997146;28;20476;-65
2022/07/11 04:08:41;;;;;;;4.20;4.00;;;18.00;99.90;;;;;;4996683;28;20520;-65
2022/07/11 04:11:07;;;;;;;3.70;3.50;;;18.00;99.90;;;;;;4996596;28;20984;-66
2022/07/11 04:13:34;;;;;;;4.33;4.10;;;18.00;99.90;;;;;;4996728;28;20454;-65
2022/07/11 04:16:01;;;;;;;4.30;4.00;;;18.00;99.90;;;;;;4996681;28;20457;-65
2022/07/11 04:18:30;;;;;;;6.33;4.47;;;18.00;99.90;;;;;;4996119;28;21008;-65
2022/07/11 04:20:56;;;;;;;3.93;3.60;;;18.00;99.90;;;;;;4996551;28;20488;-66
2022/07/11 04:23:23;;;;;;;3.63;3.43;;;18.10;99.90;;;;;;4996971;28;20457;-66
2022/07/11 04:25:50;;;;;;;3.97;3.77;;;18.20;99.90;;;;;;4995918;28;21008;-66
2022/07/11 04:28:17;;;;;;;3.90;3.60;;;18.20;99.90;;;;;;4996476;28;20533;-65
2022/07/11 04:30:44;;;;;;;4.17;3.97;;;18.30;99.90;;;;;;4996631;28;20480;-65
2022/07/11 04:33:11;;;;;;;4.30;3.90;;;18.30;99.90;;;;;;4996205;28;20941;-65
2022/07/11 04:35:39;;;;;;;3.40;3.30;;;18.20;99.90;;;;;;4996617;28;20457;-65
2022/07/11 04:38:05;;;;;;;3.73;3.53;;;18.30;99.90;;;;;;4996400;28;20840;-65
2022/07/11 04:40:32;;;;;;;3.57;3.37;;;18.30;99.90;;;;;;4995947;28;20477;-65
2022/07/11 04:42:59;;;;;;;4.83;4.57;;;18.40;99.90;;;;;;4995847;28;20457;-64
2022/07/11 04:45:25;;;;;;;4.50;4.07;;;18.40;99.90;;;;;;4995922;28;20464;-65
2022/07/11 04:47:52;;;;;;;4.20;3.90;;;18.40;99.90;;;;;;4995690;28;20454;-65
2022/07/11 04:50:19;;;;;;;4.23;3.90;;;18.30;99.90;;;;;;4995757;28;20461;-64
2022/07/11 04:52:47;;;;;;;5.13;4.70;;;18.40;99.90;;;;;;4995729;28;20458;-65
2022/07/11 04:55:14;;;;;;;4.10;3.90;;;18.40;99.90;;;;;;4995972;28;20467;-65
2022/07/11 04:57:41;;;;;;;5.20;4.53;;;18.50;99.90;;;;;;4995693;28;20481;-64
2022/07/11 05:00:09;;;;;;;5.13;4.63;;;18.60;99.90;;;;;;4996337;28;20458;-65
2022/07/11 05:02:35;;;;;;;4.43;4.20;;;18.70;99.90;;;;;;4995642;28;20460;-65
2022/07/11 05:05:02;;;;;;;5.10;4.70;;;18.70;99.90;;;;;;4995749;28;20449;-66
2022/07/11 05:07:29;;;;;;;5.30;4.90;;;18.80;99.90;;;;;;4996261;28;20452;-65
2022/07/11 05:09:57;;;;;;;4.53;4.27;;;18.90;99.90;;;;;;5002208;28;20484;-65
2022/07/11 05:12:24;;;;;;;5.20;4.80;;;18.90;99.90;;;;;;5008736;28;20500;-65
2022/07/11 05:14:51;;;;;;;4.20;3.90;;;19.00;99.90;;;;;;5011334;28;20450;-64
2022/07/11 05:17:19;;;;;;;5.23;4.73;;;19.00;99.90;;;;;;5011759;28;20456;-65
2022/07/11 05:19:49;;;;;;;5.10;4.70;;;19.00;99.90;;;;;;4999488;28;20454;-65
2022/07/11 05:22:16;;;;;;;5.50;5.10;;;19.00;99.90;;;;;;4998533;28;20560;-66
2022/07/11 05:24:42;;;;;;;5.80;5.40;;;19.10;99.90;;;;;;5002091;28;20456;-65
2022/07/11 05:27:10;;;;;;;6.10;5.67;;;19.20;99.90;;;;;;5000872;28;20809;-66
2022/07/11 05:29:37;;;;;;;5.30;4.90;;;19.20;99.90;;;;;;4998113;28;20458;-66
2022/07/11 05:32:04;;;;;;;5.13;4.83;;;19.30;99.90;;;;;;4997831;28;20520;-65
2022/07/11 05:34:31;;;;;;;4.70;4.40;;;19.30;99.90;;;;;;4997721;28;20453;-66
2022/07/11 05:36:58;;;;;;;5.80;5.30;;;19.30;99.90;;;;;;4997784;28;20987;-66
2022/07/11 05:39:25;;;;;;;5.13;4.73;;;19.40;99.90;;;;;;4998049;28;20488;-65
2022/07/11 05:41:52;;;;;;;5.00;4.50;;;19.40;99.90;;;;;;4997266;28;20480;-65
2022/07/11 05:44:20;;;;;;;5.20;4.90;;;19.40;99.90;;;;;;4997472;28;20458;-65
2022/07/11 05:46:47;;;;;;;5.50;5.13;;;19.50;99.90;;;;;;4997526;28;20453;-66
2022/07/11 05:49:14;;;;;;;5.17;4.80;;;19.50;99.90;;;;;;4996720;28;20960;-66
2022/07/11 05:51:41;;;;;;;5.83;5.33;;;19.60;99.90;;;;;;4996511;28;20480;-66
2022/07/11 05:54:08;;;;;;;4.80;4.50;;;19.70;99.90;;;;;;4997484;28;20488;-66
2022/07/11 05:56:34;;;;;;;4.43;4.13;;;19.70;99.90;;;;;;4996872;28;20453;-66
2022/07/11 05:59:01;;;;;;;5.10;4.60;;;19.80;99.90;;;;;;4995883;28;20474;-65
2022/07/11 06:01:31;;;;;;;5.03;4.63;;;19.80;99.90;;;;;;4996048;28;20855;-65
2022/07/11 06:03:58;;;;;;;5.30;5.00;;;19.80;99.90;;;;;;4996456;28;20454;-65
2022/07/11 06:06:25;;;;;;;3.70;3.40;;;19.80;99.90;;;;;;4996437;28;20896;-64
2022/07/11 06:08:53;;;;;;;4.10;3.80;;;19.90;99.90;;;;;;4996512;28;20457;-64
2022/07/11 06:11:20;;;;;;;4.13;3.93;;;20.00;99.90;;;;;;4996116;28;20477;-65
2022/07/11 06:13:49;;;;;;;3.80;3.60;;;20.00;99.90;;;;;;4996005;28;20465;-65
2022/07/11 06:16:17;;;;;;;3.90;3.60;;;20.00;99.90;;;;;;4994932;28;20458;-65
2022/07/11 06:18:46;;;;;;;4.50;4.10;;;20.10;99.90;;;;;;4994971;28;20484;-65
2022/07/11 06:21:12;;;;;;;5.50;4.47;;;20.20;99.90;;;;;;4995255;28;20552;-65
2022/07/11 06:23:40;;;;;;;4.70;3.50;;;20.20;99.90;;;;;;4995033;28;20974;-65
2022/07/11 06:26:06;;;;;;;3.80;3.60;;;20.20;99.90;;;;;;4996440;28;20860;-65
2022/07/11 06:28:34;;;;;;;4.50;4.30;;;20.30;99.90;;;;;;4998379;28;20450;-65
2022/07/11 06:31:01;;;;;;;5.00;4.70;;;20.30;99.90;;;;;;4998600;28;20500;-65
2022/07/11 06:33:28;;;;;;;4.10;3.80;;;20.30;99.90;;;;;;4998272;28;20454;-65
2022/07/11 06:35:56;;;;;;;4.57;4.27;;;20.30;99.90;;;;;;4998958;28;20457;-64
2022/07/11 06:38:23;;;;;;;4.10;3.90;;;20.40;99.90;;;;;;4999031;28;20465;-65
2022/07/11 06:40:50;;;;;;;4.30;4.00;;;20.50;99.90;;;;;;4998878;28;20572;-65
2022/07/11 06:43:17;;;;;;;4.30;4.00;;;20.60;99.90;;;;;;4998777;28;20461;-65
2022/07/11 06:45:43;;;;;;;4.90;4.30;;;20.60;99.90;;;;;;4999497;28;20854;-65
2022/07/11 06:48:10;;;;;;;4.30;4.10;;;20.70;99.90;;;;;;4999591;28;20453;-65
2022/07/11 06:50:37;;;;;;;4.60;4.20;;;20.70;99.90;;;;;;4999053;28;20477;-65
2022/07/11 06:53:05;;;;;;;5.70;4.07;;;20.90;99.90;;;;;;4998556;28;20454;-65
2022/07/11 06:55:32;;;;;;;4.30;4.10;;;21.10;99.90;;;;;;5000710;28;20462;-65
2022/07/11 06:57:59;;;;;;;4.70;4.40;;;21.30;99.90;;;;;;5006895;28;20477;-65
2022/07/11 07:00:27;;;;;;;5.40;5.00;;;21.50;99.90;;;;;;5006694;28;20457;-65
2022/07/11 07:02:56;;;;;;;8.13;4.90;;;21.60;99.90;;;;;;5001816;28;20480;-65
2022/07/11 07:05:23;;;;;;;4.47;4.17;;;21.70;99.90;;;;;;5002202;28;20484;-65
2022/07/11 07:07:49;;;;;;;5.30;4.77;;;21.70;99.90;;;;;;5001031;28;20959;-65
2022/07/11 07:10:18;;;;;;;5.07;4.50;;;22.00;99.90;;;;;;5001302;28;20460;-66
2022/07/11 07:12:45;;;;;;;3.80;3.50;;;22.30;99.90;;;;;;5000329;28;20508;-68
2022/07/11 07:15:12;;;;;;;3.97;3.77;;;23.20;99.90;;;;;;5000724;28;20522;-67
2022/07/11 07:17:39;;;;;;;3.40;3.20;;;24.00;99.90;;;;;;5000308;28;20457;-67
2022/07/11 07:20:10;;;;;;;3.40;3.20;;;24.70;99.90;;;;;;4999793;28;20484;-68
2022/07/11 07:22:37;;;;;;;4.03;3.60;;;25.00;99.90;;;;;;4999608;28;20538;-68
2022/07/11 07:25:05;;;;;;;3.87;3.10;;;25.10;99.90;;;;;;4999161;28;20937;-68
2022/07/11 07:27:33;;;;;;;3.63;3.43;;;25.20;99.90;;;;;;4999349;28;20461;-68
2022/07/11 07:30:00;;;;;;;4.60;4.27;;;25.10;99.90;;;;;;4999003;28;20967;-68
2022/07/11 07:32:26;;;;;;;3.20;3.00;;;25.00;99.90;;;;;;4998973;28;20840;-68
2022/07/11 07:34:53;;;;;;;2.70;2.60;;;25.10;99.90;;;;;;4998904;28;20461;-68
2022/07/11 07:37:20;;;;;;;3.90;3.60;;;25.10;99.90;;;;;;4998027;28;20471;-66
2022/07/11 07:39:47;;;;;;;3.40;3.20;;;25.10;99.90;;;;;;4998664;28;20477;-66
2022/07/11 07:42:14;;;;;;;4.13;3.83;;;24.90;99.70;;;;;;4998306;28;20477;-66
2022/07/11 07:44:42;;;;;;;3.57;3.37;;;24.90;99.90;;;;;;4997834;28;20462;-67
2022/07/11 07:47:08;;;;;;;3.20;2.90;;;24.80;99.80;;;;;;4998008;28;20450;-67
2022/07/11 07:49:35;;;;;;;3.10;2.63;;;24.90;99.90;;;;;;4998379;28;20450;-67
2022/07/11 07:52:02;;;;;;;3.50;3.20;;;25.10;99.40;;;;;;4997435;28;20832;-67
2022/07/11 07:54:29;;;;;;;2.93;2.53;;;25.20;99.90;;;;;;4999644;28;20464;-67
2022/07/11 07:56:56;;;;;;;5.00;2.60;;;25.50;99.20;;;;;;5002039;28;20457;-67
2022/07/11 07:59:24;;;;;;;2.73;2.53;;;25.80;98.80;;;;;;5008318;28;20473;-66
2022/07/11 08:01:52;;;;;;;2.23;2.13;;;26.50;97.50;;;;;;5001078;28;20473;-67
2022/07/11 08:04:19;;;;;;;2.00;1.90;;;27.20;94.60;;;;;;4998450;28;20469;-67
2022/07/11 08:06:46;;;;;;;2.10;1.93;;;27.60;92.40;;;;;;4997859;28;20936;-66
2022/07/11 08:09:12;;;;;;;2.90;2.67;;;27.70;92.30;;;;;;4997145;28;20828;-66
2022/07/11 08:11:40;;;;;;;2.20;1.80;;;28.10;91.30;;;;;;4997227;28;20474;-67
2022/07/11 08:14:08;;;;;;;3.03;2.20;;;28.30;91.60;;;;;;4997080;28;20453;-67
2022/07/11 08:16:35;;;;;;;2.27;1.80;;;28.70;90.10;;;;;;4997305;28;20457;-66
2022/07/11 08:19:05;;;;;;;1.73;1.70;;;29.40;87.20;;;;;;4996677;28;21014;-66
2022/07/11 08:21:33;;;;;;;2.33;2.13;;;30.00;82.90;;;;;;4996921;28;20891;-67
2022/07/11 08:24:00;;;;;;;1.83;1.70;;;30.30;82.30;;;;;;4998069;28;20807;-68
2022/07/11 08:26:27;;;;;;;1.90;1.80;;;30.10;81.40;;;;;;4997027;28;20438;-67
2022/07/11 08:28:54;;;;;;;2.63;2.40;;;29.80;81.50;;;;;;4996619;28;20456;-68
2022/07/11 08:31:21;;;;;;;2.90;2.33;;;29.20;78.10;;;;;;4996801;28;20489;-67
2022/07/11 08:33:48;;;;;;;2.77;2.57;;;28.10;82.00;;;;;;4996979;28;21003;-67
2022/07/11 08:36:16;;;;;;;2.13;2.03;;;27.40;82.90;;;;;;4997185;28;20458;-67
2022/07/11 08:38:46;;;;;;;2.50;2.40;;;27.00;84.10;;;;;;4997983;28;21015;-66
2022/07/11 08:41:13;;;;;;;1.80;1.70;;;26.70;85.50;;;;;;4998756;28;20477;-66
2022/07/11 08:43:41;;;;;;;2.00;1.90;;;26.50;87.50;;;;;;4998261;28;20454;-66
2022/07/11 08:46:09;;;;;;;2.00;1.80;;;26.30;86.50;;;;;;4997106;28;20458;-66
2022/07/11 08:48:38;;;;;;;1.80;1.70;;;26.30;88.60;;;;;;4997116;28;20450;-66
2022/07/11 08:51:07;;;;;;;2.07;1.90;;;26.30;90.10;;;;;;4996874;28;20477;-67
2022/07/11 08:53:40;;;;;;;2.03;1.93;;;26.20;89.70;;;;;;4997364;28;20447;-66
2022/07/11 08:56:14;;;;;;;1.83;1.83;;;26.10;89.00;;;;;;4998913;28;20438;-69
2022/07/11 08:58:45;;;;;;;2.80;2.60;;;26.10;90.20;;;;;;4996405;28;20461;-69
2022/07/11 09:01:16;;;;;;;2.10;2.00;;;25.90;89.90;;;;;;4997394;28;20494;-70
2022/07/11 09:03:43;;;;;;;1.77;1.67;;;25.90;90.60;;;;;;4997397;28;20905;-69
2022/07/11 09:06:11;;;;;;;1.70;1.63;;;25.90;89.00;;;;;;4997647;28;20465;-69
2022/07/11 09:08:39;;;;;;;1.67;1.57;;;25.90;88.60;;;;;;4998282;28;20458;-70
2022/07/11 09:11:06;;;;;;;1.93;1.83;;;26.20;90.40;;;;;;4995871;28;20478;-70
2022/07/11 09:13:34;;;;;;;1.37;1.37;;;26.80;88.80;;;;;;4995826;28;20468;-69
2022/07/11 09:16:05;;;;;;;1.90;1.50;;;26.90;86.20;;;;;;4995513;28;20457;-69
2022/07/11 09:18:35;;;;;;;1.83;1.73;;;27.30;84.80;;;;;;4995583;28;20437;-69
2022/07/11 09:26:36;;;;;;;1.50;1.40;;;27.40;86.60;;;;;;4995907;28;20425;-68
2022/07/11 09:29:06;;;;;;;2.30;0.90;;;28.50;82.50;;;;;;4995547;28;20450;-69
2022/07/11 09:31:33;;;;;;;1.10;1.10;;;29.20;78.80;;;;;;4996432;28;20501;-69
2022/07/11 09:34:06;;;;;;;1.10;1.10;;;29.90;77.30;;;;;;4995376;28;20471;-70
2022/07/11 09:36:41;;;;;;;0.90;0.90;;;30.00;73.00;;;;;;4995243;28;20458;-70
2022/07/11 09:39:12;;;;;;;2.50;1.37;;;30.20;74.80;;;;;;4995302;28;20488;-70
2022/07/11 09:41:39;;;;;;;1.10;1.10;;;30.10;73.10;;;;;;4995317;28;20878;-70
2022/07/11 09:44:17;;;;;;;1.67;1.57;;;29.60;73.20;;;;;;4995362;28;20484;-70
2022/07/11 09:46:46;;;;;;;1.30;1.20;;;28.90;75.00;;;;;;4995392;28;20916;-69
2022/07/11 09:49:13;;;;;;;1.60;1.50;;;28.30;76.20;;;;;;4996163;28;20473;-70
2022/07/11 09:51:41;;;;;;;1.70;1.10;;;28.00;76.20;;;;;;4995365;28;20474;-70
2022/07/11 09:54:08;;;;;;;1.60;1.53;;;27.80;77.10;;;;;;4995775;28;20454;-70
2022/07/11 09:56:42;;;;;;;1.70;1.53;;;27.60;78.00;;;;;;4995926;28;20453;-71
2022/07/11 09:59:11;;;;;;;1.50;1.40;;;27.50;77.60;;;;;;4995970;28;20473;-70
2022/07/11 10:01:39;;;;;;;2.10;2.00;;;27.30;80.00;;;;;;4999177;28;20485;-70
2022/07/11 10:04:07;;;;;;;2.10;1.70;;;27.20;81.90;;;;;;5003504;28;20453;-70
2022/07/11 10:06:36;;;;;;;1.37;1.37;;;27.10;81.90;;;;;;5007986;28;20505;-70
2022/07/11 10:09:04;;;;;;;1.57;1.47;;;27.40;81.30;;;;;;5004956;28;20454;-70
2022/07/11 10:11:32;;;;;;;2.00;1.67;;;28.10;78.00;;;;;;5008098;28;20508;-71
2022/07/11 10:14:03;;;;;;;1.70;1.60;;;28.70;77.20;;;;;;5006017;28;20453;-70
2022/07/11 10:16:42;;;;;;;2.03;1.90;;;28.80;78.20;;;;;;5003895;28;20814;-70
2022/07/11 10:19:19;;;;;;;1.57;1.57;;;28.70;76.90;;;;;;5003679;28;20461;-72
2022/07/11 10:21:54;;;;;;;2.93;1.60;;;28.50;78.80;;;;;;5008675;28;20477;-70
2022/07/11 10:24:35;;;;;;;1.63;1.60;;;28.30;74.00;;;;;;5003852;28;20517;-71
2022/07/11 10:27:09;;;;;;;1.70;1.47;;;28.10;78.40;;;;;;5000453;28;20782;-70
2022/07/11 10:29:42;;;;;;;1.60;1.50;;;28.00;79.80;;;;;;5001475;28;20445;-70
2022/07/11 10:32:11;;;;;;;1.40;1.30;;;27.90;78.00;;;;;;5001214;28;20528;-71
2022/07/11 10:34:38;;;;;;;1.70;1.70;;;27.80;78.60;;;;;;5004079;28;20960;-70
2022/07/11 10:37:07;;;;;;;1.37;1.37;;;27.80;78.30;;;;;;5001207;28;20449;-70
2022/07/11 10:39:36;;;;;;;1.73;1.63;;;27.90;79.70;;;;;;5000444;28;20473;-70
2022/07/11 10:42:05;;;;;;;1.60;1.50;;;27.90;75.70;;;;;;5002076;28;20485;-69
2022/07/11 10:44:52;;;;;;;1.60;1.53;;;27.80;77.10;;;;;;5001348;28;21007;-70
2022/07/11 10:47:43;;;;;;;1.30;1.30;;;27.40;77.70;;;;;;4999546;28;20493;-69
2022/07/11 10:50:32;;;;;;;1.93;1.80;;;27.00;79.10;;;;;;4985208;28;20556;-70
2022/07/11 10:53:05;;;;;;;1.57;1.50;;;26.70;80.40;;;;;;5000152;28;20906;-69
2022/07/11 10:55:36;;;;;;;2.10;1.67;;;26.50;81.10;;;;;;5000921;28;20840;-69
2022/07/11 10:58:12;;;;;;;1.90;1.50;;;26.60;81.70;;;;;;5000126;28;20496;-69
2022/07/11 11:00:40;;;;;;;4.83;1.73;;;26.50;81.50;;;;;;4999653;28;20489;-68
2022/07/11 11:03:08;;;;;;;3.70;1.77;;;26.50;82.60;;;;;;5000999;28;20442;-69
2022/07/11 11:05:43;;;;;;;1.90;1.80;;;26.50;82.30;;;;;;5000917;28;20524;-69
2022/07/11 11:08:47;;;;;;;1.80;1.80;;;26.60;82.60;;;;;;5000947;28;20856;-67
2022/07/11 11:11:38;;;;;;;1.70;1.60;;;26.70;84.00;;;;;;5000675;28;20470;-68
2022/07/11 11:14:29;;;;;;;1.83;1.73;;;26.70;81.90;;;;;;5000069;28;20457;-69
2022/07/11 11:17:36;;;;;;;1.73;1.63;;;26.60;82.70;;;;;;4985482;28;20454;-69
2022/07/11 11:20:04;;;;;;;1.80;1.70;;;26.70;82.60;;;;;;5000084;28;20500;-68
2022/07/11 11:22:31;;;;;;;1.60;1.60;;;26.90;81.70;;;;;;5000841;28;20481;-70
2022/07/11 11:24:58;;;;;;;1.60;1.60;;;27.30;80.30;;;;;;4999433;28;20937;-69
2022/07/11 11:27:26;;;;;;;1.70;1.70;;;27.50;80.40;;;;;;4999634;28;20454;-69
2022/07/11 11:29:54;;;;;;;1.50;1.50;;;27.80;78.10;;;;;;5000751;28;20453;-69
2022/07/11 11:32:28;;;;;;;1.50;1.43;;;28.30;75.90;;;;;;4999958;28;20487;-69
2022/07/11 11:34:55;;;;;;;1.40;1.40;;;28.60;78.30;;;;;;5000062;28;20493;-69
2022/07/11 11:37:22;;;;;;;1.63;1.53;;;28.80;77.50;;;;;;5000237;28;20454;-69
2022/07/11 11:39:57;;;;;;;3.83;2.50;;;28.70;76.30;;;;;;4999440;28;20485;-68
2022/07/11 11:42:24;;;;;;;1.87;1.77;;;28.70;77.20;;;;;;4998330;28;20995;-69
2022/07/11 11:44:53;;;;;;;2.10;2.00;;;28.50;77.40;;;;;;4999234;28;20464;-69
2022/07/11 11:47:22;;;;;;;2.40;2.20;;;28.20;77.90;;;;;;4998940;28;20457;-68
2022/07/11 11:49:49;;;;;;;2.10;2.00;;;28.00;78.50;;;;;;4999151;28;20512;-69
2022/07/11 11:52:16;;;;;;;1.90;1.80;;;27.70;79.50;;;;;;4998413;28;21012;-70
2022/07/11 11:54:45;;;;;;;2.23;2.10;;;27.50;79.30;;;;;;4998817;28;20456;-69
2022/07/11 11:57:12;;;;;;;1.83;1.67;;;27.20;77.20;;;;;;4999392;28;20816;-69
2022/07/11 11:59:40;;;;;;;2.23;2.03;;;27.20;80.20;;;;;;4998160;28;20477;-69
2022/07/11 12:02:07;;;;;;;2.57;2.47;;;27.30;81.30;;;;;;4997903;28;20861;-69
2022/07/11 12:04:36;;;;;;;2.00;1.90;;;27.60;81.50;;;;;;4998543;28;20447;-70
2022/07/11 12:07:05;;;;;;;2.40;2.30;;;27.60;81.30;;;;;;4998918;28;20457;-70
2022/07/11 12:09:47;;;;;;;2.20;2.10;;;27.30;81.60;;;;;;4998199;28;20461;-70
2022/07/11 12:15:04;;;;;;;2.63;2.13;;;27.20;82.50;;;;;;4999994;28;20461;-70
2022/07/11 12:17:31;;;;;;;3.63;1.90;;;27.50;83.30;;;;;;4999749;28;20457;-68
2022/07/11 12:19:59;;;;;;;3.23;2.10;;;27.80;78.10;;;;;;4998548;28;21019;-70
2022/07/11 12:22:27;;;;;;;1.93;1.77;;;28.10;79.10;;;;;;5001126;28;20473;-69
2022/07/11 12:24:54;;;;;;;2.30;2.10;;;28.40;77.70;;;;;;5001927;28;20793;-70
2022/07/11 12:27:23;;;;;;;2.50;2.10;;;28.20;76.60;;;;;;5001482;28;20465;-69
2022/07/11 12:29:51;;;;;;;2.77;2.23;;;28.00;77.40;;;;;;5001428;28;20449;-70
2022/07/11 12:32:19;;;;;;;1.83;1.73;;;28.00;78.00;;;;;;5002219;28;20469;-71
2022/07/11 12:34:47;;;;;;;1.90;1.80;;;28.20;78.90;;;;;;5000898;28;20513;-69
2022/07/11 12:37:17;;;;;;;3.00;2.20;;;28.30;76.70;;;;;;4999892;28;20469;-70
2022/07/11 12:39:51;;;;;;;2.20;2.07;;;28.30;76.70;;;;;;5000926;28;20482;-68
2022/07/11 12:42:26;;;;;;;4.07;2.10;;;28.50;75.10;;;;;;5000261;28;20469;-70
2022/07/11 12:44:59;;;;;;;2.17;2.07;;;28.50;77.80;;;;;;5000197;28;20457;-70
2022/07/11 12:47:28;;;;;;;2.37;2.27;;;28.50;77.70;;;;;;4999607;28;20446;-69
2022/07/11 12:49:55;;;;;;;2.10;2.10;;;28.50;77.70;;;;;;4999824;28;20449;-68
2022/07/11 12:52:24;;;;;;;2.27;2.17;;;28.60;75.40;;;;;;4999297;28;20500;-71
2022/07/11 12:55:00;;;;;;;3.43;2.70;;;28.50;76.90;;;;;;4997428;28;20512;-69
2022/07/11 12:57:27;;;;;;;2.20;2.10;;;28.50;76.10;;;;;;4999367;28;20438;-69
2022/07/11 12:59:53;;;;;;;2.87;2.67;;;28.10;77.40;;;;;;4997970;28;20481;-70
2022/07/11 13:02:20;;;;;;;3.30;2.43;;;27.90;78.10;;;;;;4997274;28;21008;-69
2022/07/11 13:04:49;;;;;;;2.40;2.23;;;27.90;78.70;;;;;;4998832;28;20465;-69
2022/07/11 13:10:06;;;;;;;2.80;2.40;;;27.70;77.80;;;;;;5000848;28;20434;-69
2022/07/11 13:12:33;;;;;;;2.70;2.60;;;27.60;78.90;;;;;;4998377;28;20473;-69
2022/07/11 13:15:10;;;;;;;2.60;2.50;;;27.50;80.90;;;;;;4998795;28;20529;-69
2022/07/11 13:17:38;;;;;;;3.10;2.80;;;27.30;79.20;;;;;;4998598;28;20927;-70
2022/07/11 13:20:07;;;;;;;2.70;2.27;;;27.40;80.20;;;;;;4997375;28;20477;-68
2022/07/11 13:22:34;;;;;;;2.63;2.47;;;27.50;81.80;;;;;;4997292;28;20528;-68
2022/07/11 13:25:01;;;;;;;2.40;2.30;;;27.40;77.70;;;;;;4996445;28;20457;-69
2022/07/11 13:27:29;;;;;;;2.60;2.47;;;27.20;79.00;;;;;;4996056;28;20457;-68
2022/07/11 13:29:56;;;;;;;2.10;1.97;;;27.10;80.70;;;;;;4995514;28;20457;-69
2022/07/11 13:32:23;;;;;;;2.30;2.20;;;27.10;82.60;;;;;;4996157;28;21002;-68
2022/07/11 13:34:50;;;;;;;3.13;2.30;;;27.20;81.60;;;;;;4997163;28;20460;-69
2022/07/11 13:37:16;;;;;;;2.60;2.40;;;27.10;82.90;;;;;;4997396;28;20837;-68
2022/07/11 13:39:43;;;;;;;2.70;2.43;;;27.20;81.50;;;;;;4997539;28;20453;-68
2022/07/11 13:42:10;;;;;;;3.00;2.17;;;27.20;80.80;;;;;;4996765;28;20481;-68
2022/07/11 13:44:38;;;;;;;2.77;2.63;;;27.30;81.20;;;;;;4996530;28;20465;-68
2022/07/11 13:47:05;;;;;;;2.60;2.40;;;27.40;80.90;;;;;;4996915;28;20813;-68
2022/07/11 13:49:32;;;;;;;2.27;2.17;;;27.60;80.60;;;;;;4997200;28;20454;-69
2022/07/11 13:51:58;;;;;;;2.80;2.60;;;27.50;79.10;;;;;;4995147;28;20476;-68
2022/07/11 13:54:25;;;;;;;5.67;2.40;;;27.50;81.30;;;;;;4995303;28;20465;-68
2022/07/11 13:56:52;;;;;;;3.70;2.50;;;27.50;81.00;;;;;;4995923;28;20453;-69
2022/07/11 13:59:19;;;;;;;3.00;2.80;;;27.40;81.40;;;;;;4995260;28;20453;-69
2022/07/11 14:01:47;;;;;;;4.13;3.17;;;27.30;80.60;;;;;;5000659;28;20482;-68
2022/07/11 14:04:14;;;;;;;3.80;2.63;;;27.30;81.40;;;;;;5003839;28;20480;-69
2022/07/11 14:06:41;;;;;;;3.23;2.93;;;27.30;80.50;;;;;;5001051;28;20960;-69
2022/07/11 14:09:08;;;;;;;4.93;2.33;;;27.20;81.60;;;;;;4998841;28;20458;-69
2022/07/11 14:11:35;;;;;;;2.90;2.73;;;27.30;82.70;;;;;;4998154;28;20470;-68
2022/07/11 14:14:01;;;;;;;3.73;2.80;;;27.20;80.70;;;;;;4997008;28;20454;-69
2022/07/11 14:16:28;;;;;;;4.13;2.80;;;27.00;82.20;;;;;;4996780;28;20457;-68
2022/07/11 14:18:56;;;;;;;3.20;2.57;;;26.90;82.80;;;;;;4996766;28;20458;-69
2022/07/11 14:21:23;;;;;;;4.50;2.70;;;26.90;84.60;;;;;;4996005;28;20540;-68
2022/07/11 14:23:50;;;;;;;3.40;2.50;;;26.90;84.10;;;;;;4995991;28;20799;-68
2022/07/11 14:26:16;;;;;;;2.50;2.30;;;26.90;82.80;;;;;;4996421;28;20454;-69
2022/07/11 14:28:43;;;;;;;3.13;2.60;;;26.70;82.80;;;;;;4995385;28;20465;-69
2022/07/11 14:31:10;;;;;;;4.43;3.00;;;26.70;83.00;;;;;;4995320;28;20476;-68
2022/07/11 14:33:36;;;;;;;3.47;2.53;;;27.00;82.30;;;;;;4994704;28;20953;-68
2022/07/11 14:36:05;;;;;;;2.60;2.50;;;27.20;85.20;;;;;;4994673;28;20456;-69
2022/07/11 14:38:32;;;;;;;3.00;2.60;;;27.50;84.60;;;;;;4994030;28;20445;-70
2022/07/11 14:41:00;;;;;;;2.73;2.50;;;27.80;82.90;;;;;;4993821;28;20849;-69
2022/07/11 14:43:27;;;;;;;3.13;2.90;;;27.80;81.90;;;;;;4994060;28;20954;-69
2022/07/11 14:45:54;;;;;;;3.47;2.60;;;27.90;80.40;;;;;;4994060;28;20545;-69
2022/07/11 14:48:21;;;;;;;3.67;2.80;;;27.80;80.30;;;;;;4996016;28;20462;-69
2022/07/11 14:50:48;;;;;;;3.13;2.40;;;27.80;81.60;;;;;;4997817;28;20469;-69
2022/07/11 14:53:16;;;;;;;2.67;2.33;;;27.90;80.70;;;;;;4998238;28;20457;-69
2022/07/11 14:55:43;;;;;;;2.70;2.50;;;27.90;79.80;;;;;;4997859;28;20460;-68
2022/07/11 14:58:09;;;;;;;2.50;2.40;;;27.70;82.60;;;;;;4998028;28;20481;-68
2022/07/11 15:00:36;;;;;;;2.47;2.30;;;27.70;80.30;;;;;;4997662;28;20486;-69
2022/07/11 15:05:47;;;;;;;2.80;2.70;;;27.70;79.30;;;;;;4998413;28;20882;-69
2022/07/11 15:13:43;;;;;;;2.90;2.70;;;27.60;80.60;;;;;;4997967;28;20947;-68
2022/07/11 15:16:10;;;;;;;2.50;2.40;;;27.30;79.80;;;;;;4997978;28;20454;-69
2022/07/11 15:18:37;;;;;;;3.10;2.60;;;27.20;79.80;;;;;;4997917;28;20434;-69
2022/07/11 15:21:04;;;;;;;2.50;2.40;;;27.20;80.20;;;;;;4997471;28;20485;-69
2022/07/11 15:23:32;;;;;;;2.43;2.23;;;27.20;82.10;;;;;;4997668;28;20466;-69
2022/07/11 15:25:59;;;;;;;2.40;2.30;;;27.00;79.70;;;;;;4998029;28;20801;-69
2022/07/11 15:28:26;;;;;;;2.40;2.30;;;27.10;79.70;;;;;;4997274;28;20948;-69
2022/07/11 15:30:53;;;;;;;2.30;2.20;;;27.10;79.70;;;;;;4997156;28;20569;-69
2022/07/11 15:33:20;;;;;;;2.97;2.23;;;27.10;80.80;;;;;;4997485;28;20458;-69
2022/07/11 15:35:49;;;;;;;2.67;2.47;;;27.10;81.60;;;;;;4997586;28;20461;-69
2022/07/11 15:38:16;;;;;;;3.10;2.57;;;26.80;80.90;;;;;;4997229;28;20454;-69
2022/07/11 15:40:44;;;;;;;5.40;2.20;;;26.70;82.60;;;;;;4997047;28;20481;-69
2022/07/11 15:43:10;;;;;;;2.97;2.23;;;26.70;82.90;;;;;;4998169;28;20458;-70
2022/07/11 15:45:37;;;;;;;2.77;2.50;;;26.70;82.90;;;;;;4996983;28;20461;-69
2022/07/11 15:48:05;;;;;;;2.40;2.30;;;26.70;82.90;;;;;;4997203;28;20458;-69
2022/07/11 15:50:31;;;;;;;2.60;2.40;;;26.70;82.80;;;;;;4997218;28;20454;-69
2022/07/11 15:53:00;;;;;;;5.90;2.50;;;26.70;83.20;;;;;;4997266;28;20458;-70
2022/07/11 15:55:26;;;;;;;3.10;2.53;;;26.80;83.90;;;;;;4997217;28;20454;-70
2022/07/11 15:57:54;;;;;;;2.30;2.20;;;27.00;83.10;;;;;;4996485;28;20458;-69
2022/07/11 16:00:21;;;;;;;2.50;2.30;;;27.20;81.90;;;;;;4996118;28;20469;-70
2022/07/11 16:02:49;;;;;;;2.57;2.43;;;27.30;81.30;;;;;;4997115;28;20969;-70
2022/07/11 16:05:16;;;;;;;3.20;2.60;;;27.30;85.90;;;;;;4996718;28;20454;-70
2022/07/11 16:07:43;;;;;;;3.03;2.57;;;27.30;83.70;;;;;;4997125;28;20450;-71
2022/07/11 16:10:10;;;;;;;2.97;2.57;;;27.30;83.00;;;;;;4997223;28;20820;-69
2022/07/11 16:12:37;;;;;;;3.73;2.50;;;27.50;82.90;;;;;;4996913;28;20497;-69
2022/07/11 16:15:06;;;;;;;4.00;3.03;;;27.50;83.40;;;;;;4996803;28;20465;-70
2022/07/11 16:17:33;;;;;;;3.93;2.50;;;27.60;83.40;;;;;;4996097;28;20453;-68
2022/07/11 16:20:01;;;;;;;4.67;2.40;;;27.60;80.50;;;;;;4996155;28;20457;-68
2022/07/11 16:22:29;;;;;;;2.90;2.70;;;27.60;80.80;;;;;;4995943;28;20488;-68
2022/07/11 16:24:56;;;;;;;2.73;2.63;;;27.50;80.00;;;;;;4995808;28;20468;-68
2022/07/11 16:27:23;;;;;;;3.27;2.97;;;27.50;80.70;;;;;;4995826;28;20454;-67
2022/07/11 16:29:50;;;;;;;4.40;2.57;;;27.40;79.90;;;;;;4995837;28;20537;-68
2022/07/11 16:32:18;;;;;;;2.70;2.50;;;27.40;80.30;;;;;;4996530;28;21049;-67
2022/07/11 16:34:44;;;;;;;2.90;2.20;;;27.20;80.00;;;;;;4995791;28;20456;-68
2022/07/11 16:37:11;;;;;;;2.40;1.83;;;27.10;80.30;;;;;;4995773;28;20818;-68
2022/07/11 16:45:07;;;;;;;2.40;2.20;;;27.20;82.50;;;;;;4996600;28;20414;-67
2022/07/11 16:47:35;;;;;;;5.70;2.20;;;27.20;80.00;;;;;;4997516;28;20458;-67
2022/07/11 16:50:02;;;;;;;2.20;2.07;;;27.00;80.60;;;;;;4996521;28;20504;-67
2022/07/11 16:52:30;;;;;;;2.13;1.63;;;27.00;82.10;;;;;;4996965;28;20501;-67
2022/07/11 16:54:59;;;;;;;2.70;2.20;;;27.00;79.20;;;;;;4997329;28;20464;-67
2022/07/11 16:57:26;;;;;;;2.90;2.70;;;26.90;80.80;;;;;;4995555;28;20453;-67
2022/07/11 16:59:52;;;;;;;2.30;2.00;;;26.90;80.50;;;;;;4995363;28;20513;-66
2022/07/11 17:02:19;;;;;;;2.50;2.13;;;26.90;80.80;;;;;;4995975;28;20485;-67
2022/07/11 17:04:48;;;;;;;3.23;2.90;;;26.70;80.00;;;;;;4996443;28;20454;-66
2022/07/11 17:07:14;;;;;;;3.07;2.30;;;26.70;82.10;;;;;;4995125;28;20909;-66
2022/07/11 17:09:41;;;;;;;2.57;2.30;;;26.70;82.70;;;;;;4996036;28;20458;-66
2022/07/11 17:12:08;;;;;;;3.10;2.40;;;26.60;80.70;;;;;;4994856;28;20474;-67
2022/07/11 17:14:34;;;;;;;2.53;2.43;;;26.60;81.20;;;;;;4995327;28;20465;-66
2022/07/11 17:17:01;;;;;;;2.40;2.20;;;26.50;80.60;;;;;;4995112;28;20481;-66
2022/07/11 17:19:28;;;;;;;3.23;2.50;;;26.30;82.50;;;;;;4994965;28;20449;-67